Syracuse Hancock International Airport
KSYR : rendu visible

Aérodrome :











RETROUVEZ-NOUS SUR...

 
LOGIN :

S'inscrire | Disclaimer

   EN    FR    IT 

 









Légende :    VFR   VFR Marginal   IFR   IFR Intensif   IFR Très Intensif
Visi : 
Plafond : 
>= 8 km
>= 3000ft
5 à 8 km
1000 à 3000 ft
1500m à 5 km
500 à 1000 ft
800 à 1500m
200 à 500 ft
< 800m
< 200 ft
Symboles :   Orages  Brouillard  Fortes neiges  Fortes précipitations  Vent > 20 kt






- Altitude de l'aérodrome : 421 ft
- Code IATA : SYR


KSYR - Syracuse Hancock International

DERNIER METAR :
  • 241254Z 19007KT 10SM FEW200 SCT250 05/M06 A2995 RMK AO2 SLP142 T00501061

METARs EXPIRÉS :
  • 241154Z 18007KT 10SM FEW200 SCT250 04/M07 A2995 RMK AO2 SLP140 4/004 T00391072 10067 20028 53004
  • 241054Z 18007KT 10SM SCT260 04/M08 A2994 RMK AO2 SLP138 T00391078

TAF KSYR
Valide du 24 à 12h jusqu'au 25 à 12h UTC


241124Z 2412/2512 19006KT P6SM FEW250
FM241500 23005KT P6SM SCT250
FM242000 VRB03KT P6SM BKN150
FM250300 00000KT P6SM BKN040



MET'MAP, la Météo Aéronautique d'un coup d'oeil ! - Copyright ORBIFLY Décembre 2007 - Disclaimer

ORBIFLY MET'MAP TEAM :

Programmation & Développement : Alexandra Zaïnal
Sur une idée originale de : Baudouin d'Aumeries
Assistance à la programmation : Marc-Olivier Méhu
Soutien technique & logistique : Manuel Goepfert

Contact : metmap@orbifly.com




SOURCES & CREDITS :

   NOAA       Earth
Advisory